createdAt,value
2023-05-21T00:06:13.303Z,14.80
2023-05-21T00:16:18.544Z,14.80
2023-05-21T00:26:23.996Z,14.70
2023-05-21T00:36:28.987Z,14.60
2023-05-21T00:46:32.745Z,14.60
2023-05-21T00:56:38.172Z,14.60
2023-05-21T01:06:42.598Z,14.50
2023-05-21T01:16:50.149Z,14.40
2023-05-21T01:26:55.174Z,14.40
2023-05-21T01:37:07.750Z,14.30
2023-05-21T01:47:12.999Z,14.30
2023-05-21T01:57:17.320Z,14.30
2023-05-21T02:07:22.806Z,14.20
2023-05-21T02:17:30.418Z,14.20
2023-05-21T02:27:36.711Z,14.20
2023-05-21T02:37:41.556Z,14.20
2023-05-21T02:47:46.668Z,14.20
2023-05-21T02:57:50.315Z,14.30
2023-05-21T03:07:55.326Z,14.20
2023-05-21T03:17:58.907Z,14.20
2023-05-21T03:28:03.946Z,14.20
2023-05-21T03:38:07.582Z,14.20
2023-05-21T03:48:12.738Z,14.30
2023-05-21T03:58:16.356Z,14.30
2023-05-21T04:08:21.394Z,14.30
2023-05-21T04:18:25.930Z,14.30
2023-05-21T04:28:31.058Z,14.40
2023-05-21T04:38:34.709Z,14.30
2023-05-21T04:48:40.979Z,14.40
2023-05-21T04:58:44.698Z,14.50
2023-05-21T05:08:50.413Z,14.40
2023-05-21T05:18:54.453Z,14.40
2023-05-21T05:29:02.433Z,14.70
2023-05-21T05:39:07.698Z,14.80
2023-05-21T05:49:13.620Z,15.00
2023-05-21T05:59:17.334Z,15.10
2023-05-21T06:09:23.049Z,15.30
2023-05-21T06:19:26.887Z,15.50
2023-05-21T06:29:32.009Z,15.60
2023-05-21T06:39:35.711Z,15.80
2023-05-21T06:49:40.758Z,15.80
2023-05-21T06:59:44.589Z,16.10
2023-05-21T07:09:49.634Z,16.60
2023-05-21T07:19:53.306Z,16.90
2023-05-21T07:29:58.495Z,17.40
2023-05-21T07:40:02.215Z,17.80
2023-05-21T07:50:08.348Z,18.30
2023-05-21T08:00:14.338Z,18.30
2023-05-21T08:10:19.978Z,18.70
2023-05-21T08:20:23.753Z,18.80
2023-05-21T08:30:29.138Z,18.80
2023-05-21T08:40:33.362Z,19.40
2023-05-21T08:50:38.403Z,19.90
2023-05-21T09:00:42.633Z,20.30
2023-05-21T09:10:51.872Z,20.30
2023-05-21T09:20:56.554Z,21.00
2023-05-21T09:31:05.258Z,21.30
2023-05-21T09:41:09.274Z,21.30
2023-05-21T09:51:17.930Z,21.50
2023-05-21T10:01:22.550Z,22.20
2023-05-21T10:11:32.280Z,22.00
2023-05-21T10:21:36.449Z,22.30
2023-05-21T10:31:46.567Z,23.10
2023-05-21T10:41:59.462Z,23.40
2023-05-21T10:52:19.945Z,23.80
2023-05-21T11:02:28.218Z,24.00
2023-05-21T11:12:35.887Z,23.80
2023-05-21T11:22:39.707Z,23.80
2023-05-21T11:33:20.228Z,23.70
2023-05-21T11:43:24.095Z,23.80
2023-05-21T11:53:30.981Z,24.00
2023-05-21T12:03:36.320Z,24.90
2023-05-21T12:13:41.846Z,24.90
2023-05-21T12:23:45.723Z,25.10
2023-05-21T12:33:51.681Z,25.70
2023-05-21T12:43:55.363Z,26.10
2023-05-21T12:54:02.154Z,26.20
2023-05-21T13:04:07.956Z,26.60
2023-05-21T13:14:13.145Z,26.80
2023-05-21T13:24:16.804Z,27.00
2023-05-21T13:34:21.781Z,27.40
2023-05-21T13:44:25.464Z,27.20
2023-05-21T13:54:30.819Z,26.90
2023-05-21T14:04:35.356Z,27.10
2023-05-21T14:14:41.993Z,26.90
2023-05-21T14:24:46.120Z,27.00
2023-05-21T14:34:51.386Z,26.80
2023-05-21T14:44:55.229Z,27.00
2023-05-21T14:55:00.430Z,27.00
2023-05-21T15:05:04.393Z,26.90
2023-05-21T15:15:10.715Z,26.80
2023-05-21T15:25:14.450Z,26.80
2023-05-21T15:35:19.996Z,26.90
2023-05-21T15:45:23.770Z,27.00
2023-05-21T15:55:28.742Z,27.10
2023-05-21T16:05:32.408Z,27.20
2023-05-21T16:15:37.748Z,27.10
2023-05-21T16:25:42.177Z,27.40
2023-05-21T16:35:47.316Z,28.10
2023-05-21T16:45:52.847Z,28.30
2023-05-21T16:55:57.903Z,28.50
2023-05-21T17:06:01.721Z,28.90
2023-05-21T17:16:07.283Z,30.30
2023-05-21T17:26:11.132Z,31.00
2023-05-21T17:36:16.281Z,30.70
2023-05-21T17:46:19.977Z,30.00
2023-05-21T17:56:25.080Z,29.20
2023-05-21T18:06:28.866Z,29.00
2023-05-21T18:16:34.099Z,28.00
2023-05-21T18:26:37.793Z,27.00
2023-05-21T18:36:42.763Z,25.40
2023-05-21T18:46:46.672Z,24.70
2023-05-21T18:56:51.753Z,24.20
2023-05-21T19:06:55.817Z,23.80
2023-05-21T19:17:02.023Z,23.30
2023-05-21T19:27:06.362Z,22.60
2023-05-21T19:37:11.424Z,22.10
2023-05-21T19:47:15.185Z,21.60
2023-05-21T19:57:20.742Z,21.50
2023-05-21T20:07:24.584Z,21.30
2023-05-21T20:17:30.473Z,21.10
2023-05-21T20:27:35.177Z,20.80
2023-05-21T20:37:40.364Z,20.60
2023-05-21T20:47:44.757Z,20.70
2023-05-21T20:57:49.835Z,20.70
2023-05-21T21:07:55.719Z,20.60
2023-05-21T21:18:01.106Z,20.40
2023-05-21T21:28:05.389Z,20.30
2023-05-21T21:38:10.378Z,20.20
2023-05-21T21:48:14.060Z,20.00
2023-05-21T21:58:19.139Z,19.80
2023-05-21T22:08:22.879Z,19.60
2023-05-21T22:18:39.647Z,19.50
2023-05-21T22:28:44.622Z,19.50
2023-05-21T22:38:49.571Z,19.50
2023-05-21T22:48:53.881Z,19.40
2023-05-21T22:58:59.511Z,19.30
2023-05-21T23:09:03.165Z,19.10
2023-05-21T23:19:08.167Z,19.00
2023-05-21T23:29:11.819Z,18.90
2023-05-21T23:39:16.904Z,18.80
2023-05-21T23:49:20.573Z,18.70
2023-05-21T23:59:25.580Z,18.60
